Pt. Reyes RCA field Weather observations

Data are for 10 minute period ending at time listed.
 Day   Time   Solar   Ave.   Ave.  Ave.  Vector    Max.   Stn.   Total 
  of    of     Rad.   Air    Rel.  Wind   Wind     Wind   Baro. Precip.
Year   Day            Temp.  Hum.  Speed  Dir.     Gust   Pres.        
2015   (PST)   W/m2    F      %     mph   deg.      mph    mb.    in.  
-----------------------------------------------------------------------
 149    3:30    0.0    49   98.2    10    296.0    14.2   1011.2  0.00  
 149    3:40    0.0    48   98.3    11    298.9    14.0   1011.2  0.00  
 149    3:50    0.0    48   98.3     9    295.5    12.1   1011.2  0.00  
 149    4:00    0.0    49   98.3    10    295.1    14.2   1011.2  0.00  
 149    4:10    0.0    48   98.3    10    299.1    12.3   1010.8  0.00  
 149    4:20    0.0    48   98.3     9    301.7    12.3   1010.8  0.00  
 149    4:30    0.0    48   98.4     8    301.6    11.2   1010.8  0.00  
 149    4:40    0.0    48   98.4     7    301.7     9.0   1010.8  0.00  
 149    4:50    0.0    48   98.4     6    313.0     9.5   1010.8  0.00  
 149    5:00    3.0    48   98.3     7    317.6     9.6   1010.8  0.00  
 149    5:10    4.0    48   98.3     4    323.3     5.8   1011.2  0.00  
 149    5:20    8.0    48   98.3     5    301.1     7.6   1011.2  0.00  
 149    5:30   12.0    48   98.3     4    299.6     6.7   1011.2  0.00  
 149    5:40   19.0    48   98.4     3    293.1     5.5   1011.5  0.00  
 149    5:50   29.0    48   98.4     2    272.5     3.1   1011.5  0.00  
 149    6:00   32.0    48   98.3     4    281.4     7.7   1011.5  0.00  
 149    6:10   43.0    48   98.3     3    256.9     7.1   1011.9  0.00  
 149    6:20   44.0    49   98.3     5    249.1     8.1   1011.9  0.00  
 149    6:30   71.0    48   98.4     4    248.9     6.1   1011.9  0.00  
 149    6:40   68.0    48   98.4     6    260.9     7.3   1011.9  0.00  
 149    6:50  106.0    48   98.4     2    222.6     5.6   1011.9  0.00  
 149    7:00   96.0    48   98.4     3    242.1     5.8   1011.9  0.00  
 149    7:10  117.0    48   98.4     3    251.6     6.6   1011.9  0.00  
 149    7:20  144.0    48   98.3     1    240.8     2.9   1011.9  0.00  
 149    7:30  140.0    49   98.3     4    244.2     6.1   1011.9  0.00  
 149    7:40  155.0    49   98.3     4    241.8     7.6   1011.9  0.00  
 149    7:50  173.0    49   98.2     6    254.4     7.7   1011.9  0.00  
 149    8:00  180.0    49   98.2     6    284.0     8.8   1011.9  0.00  
 149    8:10  213.0    49   98.2     5    303.8     8.6   1011.9  0.00  
 149    8:20  211.0    49   98.2     6    283.3     9.0   1012.2  0.00  
 149    8:30  237.0    49   98.2     6    274.7    11.0   1012.2  0.00  
 149    8:40  303.0    49   98.2     5    282.9     8.2   1012.2  0.00  
 149    8:50  353.0    50   98.2     4    281.2     7.3   1012.2  0.00  
 149    9:00  352.0    50   98.2     4    314.0     6.9   1012.2  0.00  
 149    9:10  325.0    50   98.2     1    318.3     3.5   1011.9  0.00  
 149    9:20  334.0    50   98.2     2    280.3     5.8   1012.2  0.00  
 149    9:30  357.0    50   98.1     6    292.1     8.8   1012.2  0.00  
 149    9:40  381.0    50   98.1     6    294.5     9.9   1012.2  0.00  
 149    9:50  441.0    50   97.9     9    271.1    11.5   1012.5  0.00  
 149   10:00  468.0    51   97.9     9    278.1    11.7   1012.5  0.00  
 149   10:10  495.0    51   97.6     9    283.6    13.0   1012.5  0.00  
 149   10:20  501.0    51   97.2     9    287.1    13.2   1012.5  0.00  
 149   10:30  550.0    52   96.7     9    294.2    13.4   1012.5  0.00  
 149   10:40  506.0    52   95.2    10    292.0    13.0   1012.9  0.00  
 149   10:50  412.0    52   93.4     9    278.2    12.9   1012.9  0.00  
 149   11:00  408.0    52   92.2     9    285.5    13.2   1012.9  0.00  
 149   11:10  426.0    52   91.3    11    287.1    14.0   1012.9  0.00  
 149   11:20  417.0    52   90.6    11    289.3    14.2   1012.9  0.00  
 149   11:30  411.0    52   90.9    10    298.5    14.0   1012.9  0.00  
 149   11:40  374.0    52   91.0     8    310.5    10.8   1012.5  0.00  
 149   11:50  398.0    52   91.2     9    309.9    12.1   1012.5  0.00  
 149   12:00  476.0    52   91.4     9    308.4    13.3   1012.2  0.00  
 149   12:10  448.0    52   90.1     8    307.8    11.5   1012.2  0.00  
 149   12:20  429.0    53   90.7    10    296.0    13.4   1012.2  0.00  
 149   12:30  471.0    53   89.8    11    303.5    15.1   1012.2  0.00  
 149   12:40  420.0    53   89.8    11    306.7    14.2   1012.2  0.00  
 149   12:50  421.0    53   89.1    12    309.3    14.8   1012.2  0.00  
 149   13:00  451.0    54   89.7    13    308.9    17.0   1012.2  0.00  
 149   13:10  489.0    55   88.0    14    316.6    19.2   1011.9  0.00  
 149   13:20  436.0    55   87.3    15    315.6    18.9   1011.9  0.00  
 149   13:30  452.0    55   88.1    14    311.8    18.4   1011.9  0.00  
 149   13:40  415.0    54   88.0    16    309.0    21.1   1011.9  0.00  
 149   13:50  380.0    54   88.7    15    309.6    18.9   1011.9  0.00  
 149   14:00  371.0    54   88.0    14    310.2    18.6   1011.9  0.00  
 149   14:10  353.0    54   89.1    14    309.0    18.6   1011.9  0.00  
 149   14:20  351.0    54   89.0    14    306.9    18.4   1011.5  0.00  
 149   14:30  321.0    54   89.5    13    305.0    17.5   1011.5  0.00  
 149   14:40  293.0    54   89.1    16    308.2    20.0   1011.5  0.00  
 149   14:50  274.0    54   88.5    14    309.5    19.2   1011.5  0.00  
 149   15:00  261.0    54   88.4    15    302.6    22.6   1011.5  0.00  
 149   15:10  267.0    53   88.8    15    303.1    21.3   1011.2  0.00  
 149   15:20  282.0    53   88.7    16    303.1    20.2   1011.2  0.00  
 149   15:30  249.0    53   88.2    15    303.9    20.1   1011.2  0.00  
 149   15:40  203.0    52   89.8    15    303.8    19.7   1011.2  0.00  
 149   15:50  253.0    53   89.7    15    303.1    20.2   1011.2  0.00  
 149   16:00  248.0    53   89.3    16    305.8    19.6   1010.8  0.00  
 149   16:10  316.0    53   89.1    14    309.1    17.8   1010.8  0.00  
 149   16:20  287.0    54   87.8    14    307.8    18.6   1010.8  0.00  
 149   16:30  258.0    54   87.9    15    308.9    19.8   1010.8  0.00  
 149   16:40  267.0    54   87.5    14    305.5    18.7   1010.5  0.00  
 149   16:50  211.0    54   87.5    15    304.7    18.9   1010.5  0.00  
 149   17:00  158.0    53   88.4    15    303.2    20.0   1010.5  0.00  
 149   17:10  128.0    53   89.2    14    305.9    19.2   1010.5  0.00  
 149   17:20   93.0    53   89.4    15    302.0    20.2   1010.5  0.00  
 149   17:30   92.0    53   90.1    15    300.0    18.6   1010.8  0.00  
 149   17:40   93.0    53   90.2    13    298.5    17.3   1010.8  0.00  
 149   17:50   86.0    53   90.2    13    305.9    20.5   1010.8  0.00  
 149   18:00   74.0    53   90.4    15    299.6    19.6   1010.8  0.00  
 149   18:10   47.0    52   91.0    13    306.4    17.8   1010.8  0.00  
 149   18:20   22.0    52   91.7    13    303.2    16.7   1010.8  0.00  
 149   18:30   16.0    52   92.7    14    301.6    17.5   1010.8  0.00  
 149   18:40   10.0    52   93.3    14    302.5    19.7   1010.8  0.00  
 149   18:50   10.0    52   94.0    13    300.2    17.4   1010.8  0.00  
 149   19:00    9.0    52   94.4    13    297.9    16.0   1010.8  0.00  
 149   19:10    4.0    52   94.6    12    291.6    16.5   1010.8  0.00  
 149   19:20    3.0    52   94.7    11    295.4    15.9   1010.8  0.00  
 149   19:30    3.0    52   94.8    12    290.2    16.3   1010.8  0.00  
 149   19:40    0.0    52   94.9    12    289.4    15.1   1010.8  0.00  
 149   19:50    0.0    52   95.0    10    288.0    14.5   1010.8  0.00  
 149   20:00    0.0    52   95.0    13    290.7    17.0   1010.8  0.00  
 149   20:10    0.0    51   95.0    12    291.7    15.3   1010.8  0.00  
 149   20:20    0.0    51   95.1    11    291.5    14.8   1010.8  0.00  
 149   20:30    0.0    51   95.1    11    296.6    15.0   1010.8  0.00  
 149   20:40    0.0    51   95.1    10    295.0    14.9   1010.8  0.00  
 149   20:50    0.0    51   95.1    11    302.4    15.1   1010.8  0.00  
 149   21:00    0.0    51   95.3    10    302.1    13.6   1010.8  0.00  
 149   21:10    0.0    51   95.4    10    300.1    14.8   1010.8  0.00  
 149   21:20    0.0    50   95.6    10    300.3    12.5   1010.8  0.00  
 149   21:30    0.0    50   95.8    10    298.9    14.0   1010.8  0.00  
 149   21:40    0.0    50   95.9     9    296.7    13.7   1010.5  0.00  
 149   21:50    0.0    50   96.0    10    300.2    14.1   1010.8  0.00  
 149   22:00    0.0    50   96.0    10    302.5    14.1   1010.8  0.00  
 149   22:10    0.0    50   96.0    10    300.0    14.7   1010.8  0.00  
 149   22:20    0.0    50   96.1    11    298.8    14.9   1010.5  0.00  
 149   22:30    0.0    50   96.4    10    294.8    13.5   1010.5  0.00  
 149   22:40    0.0    50   96.6    10    299.0    13.8   1010.5  0.00  
 149   22:50    0.0    50   96.8    10    304.9    13.2   1010.5  0.00  
 149   23:00    0.0    50   96.9    10    304.1    13.9   1010.5  0.00  
 149   23:10    0.0    49   97.1     9    305.1    12.5   1010.5  0.00  
 149   23:20    0.0    49   97.2    10    306.8    12.4   1010.5  0.00  
 149   23:30    0.0    49   97.3     9    301.6    11.7   1010.5  0.00  
 149   23:40    0.0    49   97.4     8    304.1    11.4   1010.2  0.00  
 149   23:50    0.0    49   97.5     8    308.7    10.3   1010.2  0.00  
 150    0:00    0.0    49   97.5     7    304.2    10.1   1010.2  0.00  
 150    0:10    0.0    49   97.6     6    305.6     9.3   1009.8  0.00  
 150    0:20    0.0    49   97.6     6    306.0     8.5   1009.8  0.00  
 150    0:30    0.0    49   97.7     8    297.7    10.3   1009.8  0.00  
 150    0:40    0.0    49   97.7     7    303.5    11.4   1009.8  0.00  
 150    0:50    0.0    49   97.8     8    289.6    11.7   1009.8  0.00  
 150    1:00    0.0    49   97.8     7    290.5    10.6   1010.2  0.00  
 150    1:10    0.0    49   97.8     9    289.9    12.7   1010.2  0.00  
 150    1:20    0.0    49   97.9    12    289.7    14.9   1010.2  0.00  
 150    1:30    0.0    49   97.9    11    293.8    15.3   1010.2  0.00  
 150    1:40    0.0    49   97.9    11    297.1    15.9   1010.2  0.00  
 150    1:50    0.0    49   98.0    12    295.4    16.3   1010.2  0.00  
 150    2:00    0.0    49   98.0    12    295.5    16.1   1010.5  0.00  
 150    2:10    0.0    50   98.0    15    303.1    21.3   1010.5  0.00  
 150    2:20    0.0    50   98.1    15    303.4    19.8   1010.5  0.00  
 150    2:30    0.0    50   98.1    16    301.1    21.5   1010.5  0.00  
 150    2:40    0.0    50   98.1    15    301.3    21.2   1010.5  0.00  
 150    2:50    0.0    50   98.1    14    301.8    18.8   1010.2  0.00  
 150    3:00    0.0    50   98.2    14    303.0    21.0   1010.2  0.00  
 150    3:10    0.0    50   98.2    14    302.8    19.1   1010.2  0.00  
 150    3:20    0.0    50   98.2    12    310.1    15.9   1010.2  0.00  

Return to Pt. Reyes graphs page.


Western Regional Climate Center,wrcc@dri.edu